20°C Temp
19°C Dewpoint
94% Humidity
Temperature
2 KM/H
1 MPH
1 KTS
Calm
Due North

Wind Speed
Misty
Conditions
Pressure 1017.92 (hPa) - 30.06 (in)
Visibility 2.5 (mi) - 4.0 (km)

Current Conditions
LEJR
Location 25(km)
Metar :LEJR 160800Z VRB01KT 4000 BR SCT002 SCT008 20/19 Q1018
Thu 16th September 10:00 am

Airport
  Metar Aviation API Data Provided by https://www.checkwx.com/ PHP scripts by weather34.com ©2021